ES-0122 weather

CLOSED Huevar 2
Huevar, AndalucĂ­a, Spain

Public forecast

Using degrees Celsius for public forecast. Weather courtesy of forecast.io.

METAR (pilot weather report)

Closest report is Sevilla Airport, 17.1 nm (31.7 km) E. Retrieved 2019/02/16 21:30 UTC (21 minutes ago):

LEZL 162130Z 11011KT CAVOK 14/05 Q1022 NOSIG

TAF (pilot weather forecast)

Closest forecast is Sevilla Airport, 17.1 nm (31.7 km) E. Retrieved 2019/02/16 21:29 UTC (22 minutes ago):

TAF LEZL 162000Z 1621/1721 08009KT CAVOK TX22/1715Z TN08/1707Z